Time;durP1;ratioP1;P1;durP2;ratioP2;P2;SDS_P1;SDS_P2;PMS_P1;PMS_P2;Temp;Humidity;BMP_temperature;BMP_pressure;BME280_temperature;BME280_humidity;BME280_pressure;Samples;Min_cycle;Max_cycle;Signal;HPM_P1;HPM_P2
2021/01/28 00:00:39;;;;;;;18.20;15.88;;;2.40;99.90;;;;;;5104567;28;20182;-87
2021/01/28 00:03:10;;;;;;;21.20;15.88;;;2.30;99.90;;;;;;5106122;28;20221;-87
2021/01/28 00:05:44;;;;;;;20.13;15.32;;;2.30;99.90;;;;;;5104684;28;20216;-87
2021/01/28 00:08:13;;;;;;;18.92;15.65;;;2.30;99.90;;;;;;5104208;28;20205;-87
2021/01/28 00:10:56;;;;;;;21.40;16.80;;;2.30;99.90;;;;;;5103801;28;20235;-85
2021/01/28 00:13:31;;;;;;;21.60;15.77;;;2.50;99.90;;;;;;5106991;28;20237;-87
2021/01/28 00:16:07;;;;;;;18.98;15.00;;;2.40;99.90;;;;;;5111753;28;20209;-87
2021/01/28 00:18:34;;;;;;;21.67;16.27;;;2.30;99.90;;;;;;5106788;28;20224;-89
2021/01/28 00:21:09;;;;;;;19.75;15.05;;;2.30;99.90;;;;;;5105759;28;20228;-87
2021/01/28 00:24:17;;;;;;;20.20;16.20;;;2.40;99.90;;;;;;5104003;28;20217;-88
2021/01/28 00:27:09;;;;;;;23.00;17.20;;;2.30;99.90;;;;;;5104148;28;20201;-86
2021/01/28 00:30:02;;;;;;;23.42;18.02;;;2.30;99.90;;;;;;5104635;28;20201;-85
2021/01/28 00:32:42;;;;;;;26.25;20.48;;;2.20;99.90;;;;;;5106749;28;20289;-86
2021/01/28 00:35:27;;;;;;;28.40;18.60;;;2.10;99.90;;;;;;5113284;28;20285;-88
2021/01/28 00:38:04;;;;;;;25.20;19.88;;;2.10;99.90;;;;;;5114715;28;20209;-85
2021/01/28 00:40:36;;;;;;;23.48;18.02;;;2.10;99.90;;;;;;5108793;28;20231;-87
2021/01/28 00:43:14;;;;;;;20.85;17.58;;;2.10;99.90;;;;;;5106381;28;20226;-86
2021/01/28 00:46:02;;;;;;;;;;;;;;;;;;;;;
2021/01/28 00:48:32;;;;;;;26.30;19.63;;;2.20;99.90;;;;;;5103393;28;20181;-86
2021/01/28 00:51:05;;;;;;;27.80;19.45;;;2.20;99.90;;;;;;5102972;28;20202;-87
2021/01/28 00:53:35;;;;;;;27.15;19.17;;;2.20;99.90;;;;;;5103710;28;20237;-85
2021/01/28 00:56:05;;;;;;;26.75;20.05;;;2.20;99.90;;;;;;5103876;28;20225;-82
2021/01/28 00:58:32;;;;;;;28.90;21.55;;;2.20;99.90;;;;;;5103024;28;20198;-86
2021/01/28 01:00:58;;;;;;;29.65;20.40;;;2.10;99.90;;;;;;5103795;28;20202;-87
2021/01/28 01:03:26;;;;;;;29.55;22.40;;;2.10;99.90;;;;;;5102901;28;20217;-86
2021/01/28 01:05:53;;;;;;;27.55;20.42;;;2.30;99.90;;;;;;5102103;28;20210;-86
2021/01/28 01:08:23;;;;;;;27.05;19.95;;;2.30;99.90;;;;;;5102891;28;20209;-87
2021/01/28 01:10:52;;;;;;;30.00;20.45;;;2.20;99.90;;;;;;5103457;28;20205;-86
2021/01/28 01:13:23;;;;;;;27.85;20.20;;;2.30;99.90;;;;;;5103002;28;20275;-86
2021/01/28 01:15:50;;;;;;;28.83;20.45;;;2.30;99.90;;;;;;5102350;28;20206;-87
2021/01/28 01:18:18;;;;;;;28.85;19.60;;;2.40;99.90;;;;;;5102499;28;20715;-87
2021/01/28 01:20:45;;;;;;;24.77;20.42;;;2.40;99.90;;;;;;5101843;28;20700;-87
2021/01/28 01:23:12;;;;;;;28.70;20.70;;;2.30;99.90;;;;;;5102196;28;20236;-85
2021/01/28 01:25:38;;;;;;;24.00;17.40;;;2.30;99.90;;;;;;5103106;28;20549;-85
2021/01/28 01:28:05;;;;;;;25.67;19.25;;;2.30;99.90;;;;;;5104177;28;20202;-86
2021/01/28 01:30:32;;;;;;;27.90;19.85;;;2.30;99.90;;;;;;5102212;28;20707;-85
2021/01/28 01:32:59;;;;;;;28.90;22.00;;;2.40;99.90;;;;;;5102179;28;20218;-86
2021/01/28 01:35:26;;;;;;;24.48;18.08;;;2.30;99.90;;;;;;5101995;28;20222;-85
2021/01/28 01:37:54;;;;;;;30.45;19.55;;;2.30;99.90;;;;;;5102379;28;20206;-85
2021/01/28 01:40:23;;;;;;;27.20;19.33;;;2.40;99.90;;;;;;5101762;28;20678;-85
2021/01/28 01:42:50;;;;;;;30.02;20.42;;;2.40;99.90;;;;;;5100613;28;20233;-85
2021/01/28 01:45:20;;;;;;;28.98;21.25;;;2.40;99.90;;;;;;5101491;28;20194;-85
2021/01/28 01:47:50;;;;;;;27.42;19.60;;;2.30;99.90;;;;;;5102384;28;20197;-85
2021/01/28 01:50:46;;;;;;;30.77;20.48;;;2.30;99.90;;;;;;5112124;28;20205;-84
2021/01/28 01:53:16;;;;;;;28.88;19.30;;;2.40;99.90;;;;;;5111468;28;20245;-83
2021/01/28 01:55:46;;;;;;;25.08;19.20;;;2.40;99.90;;;;;;5111518;28;20266;-85
2021/01/28 01:58:17;;;;;;;26.00;19.42;;;2.40;99.90;;;;;;5111323;28;20239;-86
2021/01/28 02:00:43;;;;;;;32.03;19.02;;;2.40;99.90;;;;;;5106281;28;20205;-86
2021/01/28 02:03:12;;;;;;;26.77;19.58;;;2.30;99.90;;;;;;5107954;28;20222;-86
2021/01/28 02:05:43;;;;;;;31.73;20.15;;;2.50;99.90;;;;;;5109438;28;20194;-84
2021/01/28 02:08:10;;;;;;;26.98;18.83;;;2.50;99.90;;;;;;5104454;28;20194;-84
2021/01/28 02:10:37;;;;;;;29.40;19.40;;;2.50;99.90;;;;;;5104698;28;20206;-85
2021/01/28 02:13:04;;;;;;;30.27;19.20;;;2.60;99.90;;;;;;5105876;28;20236;-85
2021/01/28 02:15:30;;;;;;;27.52;20.38;;;2.60;99.90;;;;;;5104141;28;20205;-85
2021/01/28 02:18:00;;;;;;;31.73;21.02;;;2.60;99.90;;;;;;5104464;28;20206;-85
2021/01/28 02:20:48;;;;;;;28.92;20.02;;;2.60;99.90;;;;;;5110548;28;20202;-83
2021/01/28 02:23:24;;;;;;;32.30;20.45;;;2.60;99.90;;;;;;5100555;28;20218;-85
2021/01/28 02:25:56;;;;;;;32.28;19.73;;;2.60;99.90;;;;;;5100993;28;20184;-85
2021/01/28 02:28:22;;;;;;;32.28;22.05;;;2.60;99.90;;;;;;5101651;28;20205;-85
2021/01/28 02:30:53;;;;;;;26.83;19.65;;;2.70;99.90;;;;;;5099775;28;20217;-84
2021/01/28 02:33:38;;;;;;;26.48;18.05;;;2.70;99.90;;;;;;5100082;28;20232;-85
2021/01/28 02:36:05;;;;;;;27.95;19.60;;;2.70;99.90;;;;;;5100736;28;20294;-84
2021/01/28 02:38:31;;;;;;;30.85;20.48;;;2.70;99.90;;;;;;5106799;28;20185;-85
2021/01/28 02:40:58;;;;;;;31.58;20.52;;;2.80;99.90;;;;;;5118595;28;20190;-84
2021/01/28 02:43:25;;;;;;;28.60;20.30;;;2.90;99.90;;;;;;5118870;28;20213;-84
2021/01/28 02:46:01;;;;;;;30.85;20.48;;;2.80;99.90;;;;;;5103391;28;20205;-83
2021/01/28 02:48:27;;;;;;;32.40;20.38;;;2.80;99.90;;;;;;5100097;28;20193;-83
2021/01/28 02:50:53;;;;;;;30.05;21.00;;;2.80;99.90;;;;;;5104427;28;20197;-82
2021/01/28 02:53:19;;;;;;;29.73;20.83;;;2.80;99.90;;;;;;5103852;28;20225;-83
2021/01/28 02:55:46;;;;;;;32.30;20.40;;;2.80;99.90;;;;;;5112163;28;20226;-84
2021/01/28 02:58:13;;;;;;;31.92;20.27;;;2.90;99.90;;;;;;5113428;28;20211;-84
2021/01/28 03:00:39;;;;;;;30.73;20.77;;;3.00;99.90;;;;;;5110106;28;20202;-83
2021/01/28 03:03:07;;;;;;;31.17;19.30;;;2.90;99.90;;;;;;5110856;28;20225;-82
2021/01/28 03:05:33;;;;;;;25.27;17.95;;;3.00;99.90;;;;;;5112128;28;20198;-82
2021/01/28 03:08:00;;;;;;;26.33;18.25;;;3.00;99.90;;;;;;5111204;28;20206;-82
2021/01/28 03:10:27;;;;;;;25.85;17.73;;;3.00;99.90;;;;;;5106493;28;20206;-83
2021/01/28 03:12:53;;;;;;;26.98;18.05;;;3.00;99.90;;;;;;5107359;28;20229;-83
2021/01/28 03:15:23;;;;;;;27.15;18.13;;;3.00;99.90;;;;;;5112559;28;20212;-83
2021/01/28 03:17:49;;;;;;;26.48;18.27;;;3.00;99.90;;;;;;5105610;28;20197;-83
2021/01/28 03:20:16;;;;;;;28.20;18.15;;;3.10;99.90;;;;;;5098819;28;20205;-82
2021/01/28 03:22:43;;;;;;;25.20;18.00;;;3.00;99.90;;;;;;5104059;28;20229;-84
2021/01/28 03:25:11;;;;;;;27.27;18.30;;;3.00;99.90;;;;;;5100148;28;20689;-84
2021/01/28 03:27:37;;;;;;;26.35;17.95;;;3.10;99.90;;;;;;5098322;28;20205;-84
2021/01/28 03:30:06;;;;;;;26.73;19.13;;;3.20;99.90;;;;;;5098146;28;20197;-82
2021/01/28 03:32:33;;;;;;;29.63;17.80;;;3.20;99.90;;;;;;5098142;28;20210;-83
2021/01/28 03:34:59;;;;;;;26.60;17.50;;;3.10;99.90;;;;;;5096868;28;20220;-82
2021/01/28 03:37:25;;;;;;;25.17;18.10;;;3.20;99.90;;;;;;5097454;28;20206;-85
2021/01/28 03:39:51;;;;;;;25.55;17.65;;;3.10;99.90;;;;;;5097339;28;20206;-85
2021/01/28 03:42:18;;;;;;;23.80;18.10;;;3.20;99.90;;;;;;5097990;28;20212;-85
2021/01/28 03:44:44;;;;;;;30.13;19.17;;;3.20;99.90;;;;;;5097676;28;20229;-84
2021/01/28 03:47:10;;;;;;;23.45;18.67;;;3.20;99.90;;;;;;5101721;28;20209;-84
2021/01/28 03:49:37;;;;;;;24.83;18.10;;;3.10;99.90;;;;;;5101278;28;20205;-84
2021/01/28 03:52:04;;;;;;;28.85;19.25;;;3.10;99.90;;;;;;5101818;28;20670;-84
2021/01/28 03:54:30;;;;;;;26.88;18.75;;;3.10;99.90;;;;;;5100823;28;20258;-84
2021/01/28 03:56:57;;;;;;;28.15;20.45;;;3.20;99.90;;;;;;5101261;28;20555;-85
2021/01/28 03:59:23;;;;;;;29.65;18.23;;;3.20;99.90;;;;;;5101923;28;20603;-85
2021/01/28 04:01:49;;;;;;;27.73;18.33;;;3.20;99.90;;;;;;5101693;28;20206;-85
2021/01/28 04:04:15;;;;;;;30.75;19.90;;;3.30;99.90;;;;;;5101395;28;20227;-84
2021/01/28 04:06:42;;;;;;;29.73;18.52;;;3.30;99.90;;;;;;5101890;28;20205;-84
2021/01/28 04:09:09;;;;;;;26.60;18.75;;;3.30;99.90;;;;;;5101611;28;20208;-83
2021/01/28 04:11:35;;;;;;;25.25;18.50;;;3.30;99.90;;;;;;5101384;28;20288;-83
2021/01/28 04:14:01;;;;;;;22.92;16.98;;;3.40;99.90;;;;;;5128643;22;20237;-85
2021/01/28 04:16:27;;;;;;;26.35;17.95;;;3.30;99.90;;;;;;5110576;28;20277;-85
2021/01/28 04:18:53;;;;;;;28.10;18.98;;;3.30;99.90;;;;;;5109917;28;20201;-85
2021/01/28 04:21:20;;;;;;;29.50;18.92;;;3.30;99.90;;;;;;5110605;28;20799;-85
2021/01/28 04:23:48;;;;;;;28.38;19.50;;;3.30;99.90;;;;;;5109369;28;20433;-85
2021/01/28 04:26:14;;;;;;;30.30;21.67;;;3.30;99.90;;;;;;5110193;28;20452;-85
2021/01/28 04:28:40;;;;;;;26.55;18.92;;;3.30;99.90;;;;;;5110949;28;20210;-85
2021/01/28 04:31:07;;;;;;;30.17;20.40;;;3.40;99.90;;;;;;5110558;28;20201;-86
2021/01/28 04:33:35;;;;;;;33.33;21.23;;;3.40;99.90;;;;;;5109533;28;20222;-84
2021/01/28 04:36:02;;;;;;;27.02;18.92;;;3.40;99.90;;;;;;5109762;28;20225;-85
2021/01/28 04:38:28;;;;;;;28.83;18.95;;;3.50;99.90;;;;;;5109461;28;20194;-85
2021/01/28 04:41:05;;;;;;;26.60;17.85;;;3.40;99.90;;;;;;5109533;28;20202;-84
2021/01/28 04:43:32;;;;;;;31.02;19.48;;;3.40;99.90;;;;;;5108978;28;20437;-85
2021/01/28 04:46:01;;;;;;;31.52;22.70;;;3.40;99.90;;;;;;5107951;28;20432;-85
2021/01/28 04:48:28;;;;;;;24.63;18.10;;;3.40;99.90;;;;;;5109493;28;20201;-85
2021/01/28 04:50:56;;;;;;;28.52;20.30;;;3.50;99.90;;;;;;5110379;28;20213;-84
2021/01/28 04:53:31;;;;;;;26.00;18.05;;;3.40;99.90;;;;;;5110844;28;20229;-85
2021/01/28 04:56:03;;;;;;;28.90;19.58;;;3.40;99.90;;;;;;5111418;28;20238;-84
2021/01/28 04:58:30;;;;;;;33.22;20.30;;;3.50;99.90;;;;;;5112633;28;20698;-84
2021/01/28 05:00:56;;;;;;;27.40;17.88;;;3.50;99.90;;;;;;5113147;28;20208;-85
2021/01/28 05:03:25;;;;;;;28.60;20.05;;;3.50;99.90;;;;;;5112078;28;20515;-85
2021/01/28 05:05:55;;;;;;;29.92;20.90;;;3.50;99.90;;;;;;5112272;28;20433;-85
2021/01/28 05:08:22;;;;;;;30.05;21.67;;;3.60;99.90;;;;;;5112272;28;20204;-84
2021/01/28 05:10:50;;;;;;;31.98;21.25;;;3.60;99.90;;;;;;5110620;28;20284;-85
2021/01/28 05:13:30;;;;;;;36.17;20.73;;;3.60;99.90;;;;;;5110295;28;20242;-84
2021/01/28 05:15:58;;;;;;;30.35;20.60;;;3.60;99.90;;;;;;5109466;28;20206;-84
2021/01/28 05:18:32;;;;;;;31.20;22.05;;;3.60;99.90;;;;;;5110687;28;20189;-85
2021/01/28 05:21:16;;;;;;;29.67;19.80;;;3.60;99.90;;;;;;5109761;28;20265;-85
2021/01/28 05:23:42;;;;;;;27.40;18.83;;;3.70;99.90;;;;;;5110641;28;20232;-84
2021/01/28 05:26:32;;;;;;;34.55;23.42;;;3.70;99.90;;;;;;5109508;28;20429;-84
2021/01/28 05:29:16;;;;;;;32.13;21.35;;;3.70;99.90;;;;;;5109737;28;20224;-84
2021/01/28 05:31:43;;;;;;;36.17;20.92;;;3.70;99.90;;;;;;5108690;28;20193;-84
2021/01/28 05:34:11;;;;;;;30.02;20.80;;;3.60;99.90;;;;;;5109207;28;20222;-84
2021/01/28 05:36:42;;;;;;;30.73;20.50;;;3.70;99.90;;;;;;5111864;28;20218;-85
2021/01/28 05:39:22;;;;;;;32.22;20.25;;;3.70;99.90;;;;;;5118287;28;20238;-84
2021/01/28 05:41:51;;;;;;;29.33;21.48;;;3.70;99.90;;;;;;5117671;28;20186;-84
2021/01/28 05:44:22;;;;;;;37.92;22.70;;;3.80;99.90;;;;;;5115846;28;20217;-84
2021/01/28 05:47:01;;;;;;;34.65;22.98;;;3.80;99.90;;;;;;5116179;28;20182;-84
2021/01/28 05:49:27;;;;;;;40.45;21.10;;;3.80;99.90;;;;;;5115987;28;20189;-84
2021/01/28 05:51:54;;;;;;;33.40;20.60;;;3.90;99.90;;;;;;5114768;28;20270;-84
2021/01/28 05:54:25;;;;;;;31.88;20.60;;;3.90;99.90;;;;;;5113925;28;20776;-84
2021/01/28 05:57:02;;;;;;;29.95;20.10;;;3.90;99.90;;;;;;5113571;28;20197;-85
2021/01/28 05:59:39;;;;;;;34.15;21.45;;;3.90;99.90;;;;;;5111833;28;20629;-84
2021/01/28 06:02:19;;;;;;;33.42;20.58;;;3.90;99.90;;;;;;5110904;28;20192;-84
2021/01/28 06:05:10;;;;;;;31.83;21.42;;;4.00;99.90;;;;;;5110344;28;20221;-83
2021/01/28 06:08:13;;;;;;;31.33;20.35;;;4.00;99.90;;;;;;5109329;28;20239;-85
2021/01/28 06:11:12;;;;;;;31.88;20.40;;;3.90;99.90;;;;;;5110512;28;20189;-84
2021/01/28 06:14:08;;;;;;;31.75;20.15;;;3.90;99.90;;;;;;5113248;28;20773;-83
2021/01/28 06:16:44;;;;;;;35.97;22.00;;;3.90;99.90;;;;;;5116281;28;20232;-83
2021/01/28 06:19:43;;;;;;;28.73;20.58;;;3.90;99.90;;;;;;5115741;28;20193;-83
2021/01/28 06:22:19;;;;;;;27.23;20.30;;;3.90;99.90;;;;;;5112632;28;20186;-84
2021/01/28 06:24:58;;;;;;;31.58;20.90;;;4.00;99.90;;;;;;5110554;28;20225;-84
2021/01/28 06:27:57;;;;;;;33.72;21.10;;;4.00;99.90;;;;;;5108097;28;20193;-84
2021/01/28 06:30:32;;;;;;;34.90;22.77;;;4.00;99.90;;;;;;5103784;28;20232;-83
2021/01/28 06:33:21;;;;;;;34.60;22.58;;;4.00;99.90;;;;;;5108861;28;20225;-83
2021/01/28 06:36:41;;;;;;;32.65;20.65;;;4.00;99.90;;;;;;5108067;28;20205;-84
2021/01/28 06:39:21;;;;;;;34.35;21.08;;;4.00;99.90;;;;;;5016896;28;20204;-83
2021/01/28 06:41:58;;;;;;;32.10;21.20;;;4.00;99.90;;;;;;5108424;28;20250;-85
2021/01/28 06:44:30;;;;;;;31.13;20.73;;;4.00;99.90;;;;;;5108908;28;20222;-84
2021/01/28 06:47:03;;;;;;;30.77;19.65;;;4.10;99.90;;;;;;5108770;28;20260;-84
2021/01/28 06:49:45;;;;;;;31.75;20.55;;;4.10;99.90;;;;;;5109569;28;20186;-85
2021/01/28 06:52:25;;;;;;;30.48;19.45;;;4.10;99.90;;;;;;5108983;28;20194;-84
2021/01/28 06:54:58;;;;;;;34.65;21.90;;;4.20;99.90;;;;;;5106919;28;20716;-86
2021/01/28 06:57:32;;;;;;;30.02;19.60;;;4.20;99.90;;;;;;5105839;28;20259;-84
2021/01/28 07:00:05;;;;;;;35.42;20.50;;;4.30;99.90;;;;;;5107034;28;20194;-84
2021/01/28 07:02:53;;;;;;;37.55;21.30;;;4.20;99.90;;;;;;5107704;28;20190;-85
2021/01/28 07:05:43;;;;;;;34.50;19.65;;;4.20;99.90;;;;;;5108081;28;20186;-84
2021/01/28 07:08:21;;;;;;;32.55;19.33;;;4.30;99.90;;;;;;5109001;28;20186;-83
2021/01/28 07:10:47;;;;;;;30.63;19.10;;;4.30;99.90;;;;;;5109231;28;20190;-83
2021/01/28 07:13:20;;;;;;;31.33;20.42;;;4.20;99.90;;;;;;5108233;28;20701;-84
2021/01/28 07:15:50;;;;;;;30.48;19.70;;;4.30;99.90;;;;;;5107976;28;20206;-85
2021/01/28 07:18:25;;;;;;;30.77;18.42;;;4.30;99.90;;;;;;5109169;28;20198;-85
2021/01/28 07:21:05;;;;;;;34.97;19.15;;;4.20;99.90;;;;;;5112627;28;20192;-84
2021/01/28 07:23:33;;;;;;;24.63;15.07;;;4.20;99.90;;;;;;5109372;28;20225;-84
2021/01/28 07:26:15;;;;;;;20.95;12.73;;;4.20;99.90;;;;;;5104956;28;20235;-84
2021/01/28 07:28:42;;;;;;;12.40;9.13;;;4.00;99.90;;;;;;5103282;28;20198;-84
2021/01/28 07:31:41;;;;;;;11.15;7.50;;;3.90;99.90;;;;;;5101752;28;20214;-84
2021/01/28 07:34:15;;;;;;;6.82;6.00;;;3.50;99.90;;;;;;5101605;28;20225;-84
2021/01/28 07:36:45;;;;;;;8.60;6.75;;;3.50;99.90;;;;;;5102444;28;20227;-84
2021/01/28 07:39:35;;;;;;;11.07;7.53;;;3.50;99.90;;;;;;5105144;28;20190;-84
2021/01/28 07:42:06;;;;;;;12.57;7.22;;;3.60;99.90;;;;;;5103486;28;20186;-84
2021/01/28 07:44:50;;;;;;;10.80;6.20;;;3.50;99.90;;;;;;5102472;28;20228;-84
2021/01/28 07:47:48;;;;;;;9.32;6.40;;;3.50;99.90;;;;;;5103151;28;20190;-85
2021/01/28 07:50:27;;;;;;;10.27;7.50;;;3.60;99.90;;;;;;5101141;28;20189;-84
2021/01/28 07:52:55;;;;;;;10.75;7.15;;;3.50;99.90;;;;;;5102895;28;20543;-85
2021/01/28 07:55:38;;;;;;;10.65;7.80;;;;;;;;;;5102710;28;20224;-85
2021/01/28 07:58:06;;;;;;;18.45;11.25;;;3.60;99.90;;;;;;5103265;28;20288;-84
2021/01/28 08:00:40;;;;;;;14.15;9.18;;;3.60;99.90;;;;;;5103282;28;20205;-84
2021/01/28 08:03:16;;;;;;;16.02;10.20;;;3.50;99.90;;;;;;5104118;28;20278;-85
2021/01/28 08:05:49;;;;;;;18.45;11.98;;;3.60;99.90;;;;;;5101541;28;20216;-84
2021/01/28 08:08:20;;;;;;;15.25;10.93;;;3.70;99.90;;;;;;5102184;28;20190;-84
2021/01/28 08:10:47;;;;;;;15.23;11.07;;;3.70;99.90;;;;;;5114139;28;20201;-84
2021/01/28 08:13:21;;;;;;;18.65;11.60;;;3.70;99.90;;;;;;5119559;28;20234;-84
2021/01/28 08:15:49;;;;;;;20.10;13.77;;;3.60;99.90;;;;;;5120312;28;20222;-84
2021/01/28 08:18:19;;;;;;;23.40;15.10;;;3.70;99.90;;;;;;5119934;28;20204;-84
2021/01/28 08:20:46;;;;;;;19.30;12.43;;;3.70;99.90;;;;;;5118255;28;20212;-84
2021/01/28 08:23:19;;;;;;;18.58;14.43;;;3.70;99.90;;;;;;5104438;28;20308;-84
2021/01/28 08:25:53;;;;;;;15.25;10.85;;;3.80;99.90;;;;;;5102438;28;20638;-84
2021/01/28 08:28:20;;;;;;;18.88;12.98;;;3.80;99.90;;;;;;5101846;28;20201;-84
2021/01/28 08:30:47;;;;;;;18.23;11.18;;;3.80;99.90;;;;;;5101129;28;20198;-84
2021/01/28 08:33:21;;;;;;;17.27;12.93;;;3.80;99.90;;;;;;5101848;28;20697;-84
2021/01/28 08:35:51;;;;;;;18.15;13.38;;;3.80;99.90;;;;;;5100274;28;20212;-84
2021/01/28 08:38:25;;;;;;;16.58;11.32;;;3.80;99.90;;;;;;5101840;28;20228;-84
2021/01/28 08:41:12;;;;;;;15.20;9.82;;;3.70;99.90;;;;;;5100925;28;20183;-84
2021/01/28 08:43:38;;;;;;;18.70;12.80;;;3.80;99.90;;;;;;5101571;28;20220;-84
2021/01/28 08:46:10;;;;;;;12.63;9.05;;;3.80;99.90;;;;;;5101770;28;20255;-84
2021/01/28 08:48:38;;;;;;;14.63;10.73;;;3.90;99.90;;;;;;5101045;28;20193;-84
2021/01/28 08:51:19;;;;;;;15.85;9.70;;;3.90;99.90;;;;;;5101294;28;20511;-84
2021/01/28 08:53:55;;;;;;;14.18;11.00;;;3.90;99.90;;;;;;5099723;28;20255;-84
2021/01/28 08:56:25;;;;;;;14.85;10.48;;;3.80;99.90;;;;;;5099779;28;20232;-84
2021/01/28 08:58:54;;;;;;;13.82;9.77;;;3.80;99.90;;;;;;5100742;28;20201;-85
2021/01/28 09:01:21;;;;;;;13.80;9.48;;;3.80;99.90;;;;;;5101438;28;20201;-85
2021/01/28 09:04:02;;;;;;;16.63;9.75;;;3.80;99.90;;;;;;5102210;28;20727;-85
2021/01/28 09:06:28;;;;;;;14.38;8.50;;;3.80;99.90;;;;;;5100907;28;20220;-85
2021/01/28 09:09:07;;;;;;;12.55;7.95;;;3.70;99.90;;;;;;5100868;28;20670;-84
2021/01/28 09:11:33;;;;;;;16.80;10.38;;;3.70;99.90;;;;;;5104185;28;20205;-84
2021/01/28 09:14:12;;;;;;;14.27;8.52;;;3.70;99.90;;;;;;5102668;28;20230;-84
2021/01/28 09:16:38;;;;;;;15.70;8.95;;;3.60;99.90;;;;;;5114617;28;20212;-83
2021/01/28 09:19:13;;;;;;;11.50;7.47;;;3.70;99.90;;;;;;5117562;28;20210;-82
2021/01/28 09:21:41;;;;;;;15.35;9.40;;;3.50;99.90;;;;;;5117675;28;20420;-84
2021/01/28 09:24:19;;;;;;;19.92;9.80;;;3.50;99.90;;;;;;5117909;28;20222;-83
2021/01/28 09:26:46;;;;;;;11.77;8.02;;;3.60;99.90;;;;;;5118913;28;20174;-83
2021/01/28 09:29:17;;;;;;;16.17;10.25;;;3.60;99.90;;;;;;5118943;28;20231;-84
2021/01/28 09:31:43;;;;;;;12.98;8.35;;;3.60;99.90;;;;;;5117549;28;20174;-84
2021/01/28 09:34:16;;;;;;;17.13;9.43;;;3.70;99.90;;;;;;5118380;28;20227;-84
2021/01/28 09:36:52;;;;;;;12.70;8.90;;;3.70;99.90;;;;;;5117087;28;20252;-84
2021/01/28 09:39:29;;;;;;;15.35;9.00;;;3.40;99.90;;;;;;5116460;28;20192;-85
2021/01/28 09:41:55;;;;;;;14.25;10.52;;;3.50;99.90;;;;;;5106554;28;20190;-85
2021/01/28 09:44:37;;;;;;;16.92;9.30;;;3.50;99.90;;;;;;5101863;28;20269;-85
2021/01/28 09:47:21;;;;;;;15.55;9.38;;;3.50;99.90;;;;;;5102187;28;20622;-85
2021/01/28 09:49:50;;;;;;;15.02;9.88;;;3.50;99.90;;;;;;5101481;28;20194;-85
2021/01/28 09:52:24;;;;;;;13.35;8.73;;;3.60;99.90;;;;;;5101032;28;20198;-85
2021/01/28 09:54:56;;;;;;;18.38;9.75;;;3.60;99.90;;;;;;5100815;28;20629;-85
2021/01/28 09:57:23;;;;;;;15.68;10.32;;;3.70;99.90;;;;;;5100591;28;20186;-85
2021/01/28 09:59:50;;;;;;;15.30;9.10;;;3.60;99.90;;;;;;5101355;28;20202;-85
2021/01/28 10:02:20;;;;;;;14.20;8.35;;;3.70;99.90;;;;;;5101020;28;20710;-85
2021/01/28 10:04:46;;;;;;;16.27;10.07;;;3.60;99.90;;;;;;5099183;28;20299;-86
2021/01/28 10:07:13;;;;;;;15.68;10.45;;;3.70;99.90;;;;;;5101101;28;20201;-85
2021/01/28 10:09:40;;;;;;;10.95;7.55;;;3.60;99.90;;;;;;5102855;28;20201;-86
2021/01/28 10:12:07;;;;;;;14.45;8.60;;;3.70;99.90;;;;;;5105845;28;20198;-84
2021/01/28 10:14:39;;;;;;;18.98;10.75;;;3.70;99.90;;;;;;5115189;28;20230;-84
2021/01/28 10:17:05;;;;;;;14.45;9.45;;;3.60;99.90;;;;;;5115803;28;20293;-84
2021/01/28 10:19:31;;;;;;;10.18;7.72;;;3.70;99.90;;;;;;5118449;28;20193;-84
2021/01/28 10:21:57;;;;;;;11.93;8.35;;;3.60;99.90;;;;;;5118574;28;20204;-86
2021/01/28 10:24:27;;;;;;;13.63;9.00;;;3.50;99.90;;;;;;5118952;28;20362;-86
2021/01/28 10:26:53;;;;;;;16.45;8.20;;;3.60;99.90;;;;;;5118477;28;20194;-85
2021/01/28 10:29:20;;;;;;;14.82;9.48;;;3.60;99.90;;;;;;5117823;28;20272;-85
2021/01/28 10:31:47;;;;;;;16.42;8.70;;;3.60;99.90;;;;;;5112316;28;20201;-84
2021/01/28 10:34:13;;;;;;;17.83;10.05;;;3.70;99.90;;;;;;5108485;28;20222;-84
2021/01/28 10:36:39;;;;;;;14.48;9.57;;;3.60;99.90;;;;;;5110385;28;20454;-84
2021/01/28 10:39:05;;;;;;;16.33;10.75;;;3.60;99.90;;;;;;5112658;28;20202;-84
2021/01/28 10:41:35;;;;;;;17.25;9.48;;;3.60;99.90;;;;;;5112897;28;20201;-85
2021/01/28 10:44:01;;;;;;;13.75;9.23;;;3.60;99.90;;;;;;5110890;28;20225;-84
2021/01/28 10:46:28;;;;;;;12.07;9.68;;;3.60;99.90;;;;;;5108073;28;20201;-84
2021/01/28 10:48:54;;;;;;;15.30;10.40;;;3.60;99.90;;;;;;5111579;28;20642;-84
2021/01/28 10:51:27;;;;;;;15.13;9.43;;;3.60;99.90;;;;;;5104152;28;20197;-85
2021/01/28 10:53:53;;;;;;;13.75;10.30;;;3.70;99.90;;;;;;5103390;28;20256;-85
2021/01/28 10:56:19;;;;;;;17.27;10.45;;;3.60;99.90;;;;;;5106742;28;20252;-85
2021/01/28 10:58:49;;;;;;;14.57;9.73;;;3.80;99.90;;;;;;5108897;28;20213;-84
2021/01/28 11:01:15;;;;;;;16.70;10.18;;;3.80;99.90;;;;;;5109227;28;20197;-84
2021/01/28 11:03:42;;;;;;;15.57;10.88;;;3.80;99.90;;;;;;5108056;28;20221;-84
2021/01/28 11:06:10;;;;;;;16.58;9.90;;;3.70;99.90;;;;;;5114122;28;20280;-84
2021/01/28 11:08:36;;;;;;;12.20;10.25;;;3.70;99.90;;;;;;5113408;28;20261;-84
2021/01/28 11:11:15;;;;;;;11.65;9.40;;;3.60;99.90;;;;;;5114055;28;20256;-83
2021/01/28 11:13:42;;;;;;;18.52;9.10;;;3.70;99.90;;;;;;5111442;28;20252;-85
2021/01/28 11:16:08;;;;;;;14.50;9.85;;;3.90;99.90;;;;;;5116380;28;20221;-85
2021/01/28 11:18:37;;;;;;;16.20;10.20;;;3.70;99.90;;;;;;5116330;28;20197;-85
2021/01/28 11:21:05;;;;;;;15.02;10.02;;;3.80;99.90;;;;;;5115724;28;20196;-85
2021/01/28 11:23:31;;;;;;;14.70;10.82;;;3.60;99.90;;;;;;5113961;28;20255;-85
2021/01/28 11:25:57;;;;;;;14.95;9.25;;;3.80;99.90;;;;;;5113764;28;20246;-85
2021/01/28 11:28:23;;;;;;;15.93;9.60;;;3.80;99.90;;;;;;5112503;28;20205;-85
2021/01/28 11:30:50;;;;;;;14.65;10.07;;;3.80;99.90;;;;;;5113447;28;20234;-85
2021/01/28 11:33:16;;;;;;;14.18;10.43;;;4.00;99.90;;;;;;5112843;28;20251;-85
2021/01/28 11:35:42;;;;;;;17.13;9.57;;;3.80;99.90;;;;;;5112888;28;20221;-84
2021/01/28 11:38:10;;;;;;;12.35;9.50;;;3.80;99.90;;;;;;5114129;28;20201;-84
2021/01/28 11:40:37;;;;;;;11.88;7.50;;;3.90;99.90;;;;;;5119315;28;20194;-85
2021/01/28 11:43:04;;;;;;;15.82;9.65;;;3.80;99.90;;;;;;5116608;28;20221;-85
2021/01/28 11:45:46;;;;;;;13.57;9.05;;;3.70;99.90;;;;;;5114877;28;20213;-86
2021/01/28 11:48:13;;;;;;;16.35;10.80;;;3.60;99.90;;;;;;5113816;28;20190;-84
2021/01/28 11:50:39;;;;;;;10.80;9.70;;;3.50;99.90;;;;;;5114154;28;20201;-87
2021/01/28 11:53:06;;;;;;;12.15;9.02;;;3.50;99.90;;;;;;5113543;28;20232;-84
2021/01/28 11:55:35;;;;;;;14.60;9.23;;;3.60;99.90;;;;;;5111250;28;20225;-86
2021/01/28 11:58:01;;;;;;;14.82;9.73;;;3.70;99.90;;;;;;5108731;28;20224;-85
2021/01/28 12:00:29;;;;;;;14.82;10.38;;;3.70;99.90;;;;;;5105041;28;20268;-85
2021/01/28 12:02:55;;;;;;;17.00;9.90;;;3.60;99.90;;;;;;5107509;28;20201;-85
2021/01/28 12:05:25;;;;;;;11.98;8.30;;;3.80;99.90;;;;;;5106674;28;20549;-84
2021/01/28 12:07:51;;;;;;;10.52;7.82;;;3.80;99.90;;;;;;5105440;28;20201;-84
2021/01/28 12:10:18;;;;;;;11.57;8.95;;;3.90;99.90;;;;;;5105066;28;20205;-84
2021/01/28 12:12:45;;;;;;;14.55;8.55;;;4.00;99.90;;;;;;5105686;28;20584;-85
2021/01/28 12:15:12;;;;;;;11.90;8.90;;;4.00;99.90;;;;;;5105826;28;20223;-84
2021/01/28 12:17:39;;;;;;;9.57;7.50;;;3.80;99.90;;;;;;5105535;28;20577;-85
2021/01/28 12:20:08;;;;;;;11.23;8.90;;;3.80;99.90;;;;;;5106815;28;20201;-85
2021/01/28 12:22:35;;;;;;;9.32;7.72;;;3.80;99.90;;;;;;5106320;28;20201;-85
2021/01/28 12:25:01;;;;;;;12.82;8.55;;;3.90;99.90;;;;;;5108182;28;20244;-84
2021/01/28 12:27:28;;;;;;;16.98;10.88;;;3.90;99.90;;;;;;5106908;28;20206;-84
2021/01/28 12:29:55;;;;;;;10.38;7.78;;;4.00;99.90;;;;;;5106658;28;20222;-85
2021/01/28 12:32:22;;;;;;;12.30;8.70;;;3.80;99.90;;;;;;5105141;28;20208;-86
2021/01/28 12:34:54;;;;;;;12.65;7.47;;;4.00;99.90;;;;;;5104493;28;20230;-85
2021/01/28 12:37:22;;;;;;;9.45;6.88;;;3.80;99.90;;;;;;5105644;28;20182;-85
2021/01/28 12:39:48;;;;;;;9.60;7.68;;;3.80;99.90;;;;;;5113058;28;20198;-85
2021/01/28 12:42:18;;;;;;;8.75;6.80;;;3.50;99.90;;;;;;5107093;28;20205;-84
2021/01/28 12:44:44;;;;;;;9.30;7.13;;;3.50;99.90;;;;;;5107056;28;20222;-85
2021/01/28 12:47:11;;;;;;;8.68;6.20;;;3.90;99.90;;;;;;5110884;28;20189;-85
2021/01/28 12:49:38;;;;;;;10.05;7.63;;;3.70;99.90;;;;;;5119370;28;20215;-85
2021/01/28 12:52:09;;;;;;;7.70;6.22;;;3.80;99.90;;;;;;5118949;28;20186;-85
2021/01/28 12:54:35;;;;;;;8.38;6.32;;;3.60;99.90;;;;;;5118987;28;20239;-85
2021/01/28 12:57:17;;;;;;;8.07;6.65;;;3.60;99.90;;;;;;5118348;28;20244;-85
2021/01/28 12:59:45;;;;;;;5.80;5.18;;;3.80;99.90;;;;;;5112082;28;20193;-84
2021/01/28 13:02:12;;;;;;;9.65;6.00;;;3.60;99.90;;;;;;5107668;28;20235;-85